Time;durP1;ratioP1;P1;durP2;ratioP2;P2;SDS_P1;SDS_P2;PMS_P1;PMS_P2;Temp;Humidity;BMP_temperature;BMP_pressure;BME280_temperature;BME280_humidity;BME280_pressure;Samples;Min_cycle;Max_cycle;Signal;HPM_P1;HPM_P2
2021/06/02 00:02:01;;;;;;;6.88;4.45;;;18.20;68.80;;;;;;5052826;28;20047;-67
2021/06/02 00:05:06;;;;;;;10.38;4.05;;;18.10;68.90;;;;;;5052032;28;20048;-67
2021/06/02 00:08:12;;;;;;;11.50;4.28;;;18.00;69.10;;;;;;5052731;28;20052;-67
2021/06/02 00:11:16;;;;;;;9.32;4.30;;;18.00;68.50;;;;;;5052444;28;20401;-67
2021/06/02 00:14:22;;;;;;;15.27;4.22;;;18.10;68.30;;;;;;5051698;28;20044;-67
2021/06/02 00:17:26;;;;;;;6.82;4.15;;;18.20;67.50;;;;;;5052525;28;20047;-67
2021/06/02 00:20:31;;;;;;;7.65;3.78;;;18.20;67.50;;;;;;5051949;28;20520;-67
2021/06/02 00:23:36;;;;;;;5.88;3.75;;;18.20;68.10;;;;;;5052410;28;20491;-67
2021/06/02 00:26:41;;;;;;;7.15;4.20;;;18.40;67.40;;;;;;5052055;28;20056;-67
2021/06/02 00:29:45;;;;;;;8.15;3.78;;;18.50;66.50;;;;;;5051568;28;20044;-67
2021/06/02 00:32:51;;;;;;;8.88;3.80;;;18.50;66.40;;;;;;5052188;28;20056;-67
2021/06/02 00:35:55;;;;;;;10.27;4.43;;;18.50;66.30;;;;;;5051292;28;20040;-67
2021/06/02 00:39:00;;;;;;;6.57;3.63;;;18.40;67.10;;;;;;5051759;28;20044;-67
2021/06/02 00:42:05;;;;;;;9.27;4.55;;;18.30;66.40;;;;;;5051712;28;20071;-67
2021/06/02 00:45:11;;;;;;;7.45;3.63;;;18.30;66.30;;;;;;5051764;28;20040;-67
2021/06/02 00:48:18;;;;;;;7.38;4.00;;;18.20;66.40;;;;;;5051670;28;20043;-67
2021/06/02 00:51:23;;;;;;;7.60;4.22;;;18.20;66.20;;;;;;5051544;28;20040;-67
2021/06/02 00:54:31;;;;;;;8.35;3.83;;;18.20;65.90;;;;;;5050871;28;20416;-67
2021/06/02 00:57:35;;;;;;;10.10;3.80;;;18.20;66.20;;;;;;5051251;28;20064;-67
2021/06/02 01:00:40;;;;;;;6.20;3.78;;;18.30;66.20;;;;;;5051202;28;20051;-67
2021/06/02 01:03:44;;;;;;;7.28;4.32;;;18.20;66.10;;;;;;5051711;28;20052;-67
2021/06/02 01:06:48;;;;;;;9.70;3.92;;;18.20;66.40;;;;;;5051509;28;20040;-67
2021/06/02 01:09:57;;;;;;;5.90;4.25;;;18.20;66.50;;;;;;5051336;28;20039;-67
2021/06/02 01:13:03;;;;;;;9.40;3.97;;;18.30;66.30;;;;;;5050904;28;20071;-67
2021/06/02 01:16:08;;;;;;;10.82;4.32;;;18.30;66.30;;;;;;5050302;28;20412;-67
2021/06/02 01:19:13;;;;;;;10.02;3.45;;;18.20;66.20;;;;;;5051470;28;20052;-67
2021/06/02 01:22:17;;;;;;;10.30;4.15;;;18.10;65.40;;;;;;5050085;28;20155;-66
2021/06/02 01:25:23;;;;;;;11.32;3.97;;;17.80;66.30;;;;;;5051186;28;20056;-67
2021/06/02 01:28:27;;;;;;;8.52;3.63;;;17.60;65.90;;;;;;5050986;28;20207;-67
2021/06/02 01:31:42;;;;;;;9.00;3.78;;;17.50;65.90;;;;;;5050921;28;20112;-65
2021/06/02 01:35:03;;;;;;;8.68;3.55;;;17.60;65.60;;;;;;5050925;28;20044;-66
2021/06/02 01:38:38;;;;;;;5.95;3.08;;;17.50;64.90;;;;;;5051788;28;20055;-66
2021/06/02 01:42:08;;;;;;;18.60;3.80;;;17.40;65.80;;;;;;5051048;28;20040;-66
2021/06/02 01:45:24;;;;;;;6.47;3.97;;;17.40;66.00;;;;;;5050358;28;20044;-66
2021/06/02 01:48:33;;;;;;;7.22;3.83;;;17.40;66.00;;;;;;5050585;28;20055;-66
2021/06/02 01:51:56;;;;;;;11.40;3.35;;;17.30;66.50;;;;;;5050914;28;20116;-66
2021/06/02 01:55:53;;;;;;;5.30;3.50;;;17.30;66.10;;;;;;5021440;28;20250;-66
2021/06/02 01:58:39;;;;;;;5.22;3.30;;;17.30;65.10;;;;;;5028632;28;20048;-66
2021/06/02 02:01:55;;;;;;;4.63;2.97;;;17.40;64.70;;;;;;5028711;28;20053;-66
2021/06/02 02:05:29;;;;;;;5.22;3.30;;;17.40;63.70;;;;;;5017195;28;20052;-66
2021/06/02 02:08:48;;;;;;;4.88;3.22;;;17.40;63.20;;;;;;5028122;28;20145;-67
2021/06/02 02:12:05;;;;;;;8.23;3.10;;;17.40;62.80;;;;;;5028099;28;20049;-66
2021/06/02 02:15:25;;;;;;;3.85;2.95;;;17.50;62.20;;;;;;5028121;28;20581;-67
2021/06/02 02:18:32;;;;;;;6.65;3.78;;;17.50;62.50;;;;;;5027792;28;20053;-67
2021/06/02 02:22:02;;;;;;;4.18;2.92;;;17.40;62.50;;;;;;5027963;28;20060;-66
2021/06/02 02:25:14;;;;;;;5.28;3.13;;;17.30;62.60;;;;;;5027910;28;20044;-67
2021/06/02 02:28:24;;;;;;;8.75;4.13;;;17.20;63.40;;;;;;5036434;28;20071;-68
2021/06/02 02:31:49;;;;;;;7.47;3.30;;;17.20;63.40;;;;;;5054422;28;20112;-67
2021/06/02 02:35:15;;;;;;;5.35;3.05;;;17.20;63.60;;;;;;5054304;28;20044;-68
2021/06/02 02:38:37;;;;;;;9.50;3.42;;;17.20;64.00;;;;;;5054495;28;20519;-67
2021/06/02 02:42:04;;;;;;;5.43;4.03;;;17.20;64.50;;;;;;5054434;28;20048;-68
2021/06/02 02:45:35;;;;;;;6.80;4.47;;;17.20;66.00;;;;;;5054260;28;20056;-68
2021/06/02 02:48:47;;;;;;;9.00;3.80;;;17.10;67.10;;;;;;5054148;28;20052;-68
2021/06/02 02:52:12;;;;;;;12.85;4.28;;;17.10;67.60;;;;;;5054149;28;20063;-68
2021/06/02 02:55:21;;;;;;;6.05;3.80;;;17.00;67.90;;;;;;5053792;28;20044;-68
2021/06/02 02:58:40;;;;;;;8.35;3.80;;;17.10;66.90;;;;;;5053786;28;20044;-67
2021/06/02 03:02:12;;;;;;;4.10;3.30;;;17.10;64.90;;;;;;5053802;28;20048;-65
2021/06/02 03:05:38;;;;;;;4.93;3.78;;;17.20;63.60;;;;;;5053490;28;20512;-67
2021/06/02 03:08:52;;;;;;;6.97;3.70;;;17.10;64.10;;;;;;5053842;28;20044;-67
2021/06/02 03:12:47;;;;;;;6.28;3.40;;;17.10;64.30;;;;;;5053487;28;20060;-66
2021/06/02 03:15:58;;;;;;;5.65;3.58;;;16.90;64.00;;;;;;5053835;28;20377;-67
2021/06/02 03:19:15;;;;;;;9.25;3.92;;;16.80;64.60;;;;;;5053649;28;20048;-68
2021/06/02 03:22:22;;;;;;;8.00;3.78;;;16.90;64.80;;;;;;5053897;28;20515;-68
2021/06/02 03:25:47;;;;;;;6.25;3.60;;;17.00;64.70;;;;;;5053528;28;20071;-68
2021/06/02 03:29:23;;;;;;;7.95;4.40;;;17.00;64.30;;;;;;5053159;28;20044;-67
2021/06/02 03:32:55;;;;;;;7.35;3.20;;;17.00;64.50;;;;;;5053368;28;20095;-68
2021/06/02 03:36:02;;;;;;;;;;;17.00;65.30;;;;;;5054247;28;20040;-67
2021/06/02 03:39:33;;;;;;;6.45;3.70;;;17.00;65.90;;;;;;5052288;28;20433;-66
2021/06/02 03:42:48;;;;;;;7.18;3.63;;;17.10;64.60;;;;;;5053351;28;20060;-67
2021/06/02 03:46:01;;;;;;;5.95;3.17;;;17.00;64.80;;;;;;5053247;28;20044;-67
2021/06/02 03:49:26;;;;;;;6.72;3.05;;;17.00;63.00;;;;;;5053324;28;20044;-68
2021/06/02 03:52:49;;;;;;;6.72;2.90;;;17.00;62.80;;;;;;5053024;28;20127;-68
2021/06/02 03:56:23;;;;;;;6.85;3.50;;;17.10;63.60;;;;;;5052222;28;20064;-65
2021/06/02 03:59:51;;;;;;;5.35;3.75;;;17.10;64.50;;;;;;5052968;28;20068;-67
2021/06/02 04:03:11;;;;;;;11.88;3.90;;;17.20;64.30;;;;;;5052388;28;20068;-68
2021/06/02 04:06:38;;;;;;;12.20;3.72;;;17.40;64.60;;;;;;5052778;28;20036;-68
2021/06/02 04:09:52;;;;;;;20.77;4.05;;;17.50;65.10;;;;;;5052290;28;20608;-67
2021/06/02 04:13:21;;;;;;;10.60;3.90;;;17.70;64.30;;;;;;5051867;28;20047;-67
2021/06/02 04:16:34;;;;;;;11.73;3.60;;;17.70;64.40;;;;;;5052753;28;20496;-67
2021/06/02 04:19:39;;;;;;;14.15;3.70;;;17.70;64.70;;;;;;5052032;28;20044;-67
2021/06/02 04:22:47;;;;;;;10.60;4.10;;;17.80;65.00;;;;;;5052363;28;20040;-67
2021/06/02 04:25:51;;;;;;;9.35;4.57;;;17.90;64.60;;;;;;5052433;28;20044;-67
2021/06/02 04:28:59;;;;;;;13.95;5.07;;;18.00;63.00;;;;;;5052003;28;20055;-67
2021/06/02 04:32:06;;;;;;;11.98;4.88;;;18.30;62.70;;;;;;5052287;28;20036;-67
2021/06/02 04:35:17;;;;;;;11.07;5.15;;;18.50;62.20;;;;;;5052363;28;20048;-67
2021/06/02 04:38:21;;;;;;;8.10;4.57;;;18.60;60.50;;;;;;5052001;28;20044;-67
2021/06/02 04:41:27;;;;;;;8.85;4.47;;;18.80;59.70;;;;;;5051712;28;20059;-67
2021/06/02 04:44:33;;;;;;;8.88;4.47;;;19.10;59.20;;;;;;5051905;28;20039;-67
2021/06/02 04:47:40;;;;;;;16.92;4.53;;;19.50;59.10;;;;;;5051498;28;20051;-67
2021/06/02 04:50:51;;;;;;;24.15;4.70;;;19.70;59.00;;;;;;5052016;28;20036;-66
2021/06/02 04:54:29;;;;;;;20.02;4.97;;;19.80;60.80;;;;;;5051775;28;20052;-65
2021/06/02 04:57:56;;;;;;;27.52;10.02;;;19.80;61.50;;;;;;5052185;28;20495;-67
2021/06/02 05:01:31;;;;;;;14.50;5.43;;;19.70;61.30;;;;;;5051563;28;20059;-67
2021/06/02 05:04:59;;;;;;;8.43;4.20;;;19.80;58.10;;;;;;5051708;28;20417;-67
2021/06/02 05:08:10;;;;;;;12.02;3.97;;;19.80;57.40;;;;;;5051702;28;20047;-67
2021/06/02 05:11:14;;;;;;;9.43;4.45;;;20.00;57.60;;;;;;5051318;28;20400;-67
2021/06/02 05:14:59;;;;;;;11.05;3.72;;;20.10;56.70;;;;;;5051418;28;20393;-69
2021/06/02 05:18:21;;;;;;;;;;;20.10;57.00;;;;;;5051784;28;20044;-68
2021/06/02 05:25:32;;;;;;;12.98;7.28;;;20.40;59.60;;;;;;5051365;28;20512;-68
2021/06/02 05:29:08;;;;;;;17.90;6.22;;;20.50;59.40;;;;;;5050507;28;20040;-69
2021/06/02 05:32:52;;;;;;;12.52;6.15;;;20.90;59.20;;;;;;5039064;28;20056;-68
2021/06/02 05:36:11;;;;;;;15.38;5.78;;;21.50;56.50;;;;;;5051330;28;20122;-65
2021/06/02 05:39:33;;;;;;;22.77;6.10;;;21.70;54.80;;;;;;5051002;28;20203;-66
2021/06/02 05:43:15;;;;;;;18.05;5.88;;;21.80;54.50;;;;;;5051543;28;20067;-66
2021/06/02 05:46:56;;;;;;;17.52;5.97;;;21.70;54.90;;;;;;5051312;28;20048;-66
2021/06/02 05:50:19;;;;;;;15.20;6.47;;;21.80;55.60;;;;;;5051844;28;20044;-65
2021/06/02 05:53:23;;;;;;;20.65;7.03;;;22.10;56.20;;;;;;5051780;28;20044;-66
2021/06/02 05:56:46;;;;;;;14.82;6.50;;;22.30;55.30;;;;;;5051221;28;20116;-66
2021/06/02 06:00:24;;;;;;;23.48;8.80;;;22.30;54.80;;;;;;5049509;28;20064;-66
2021/06/02 06:03:50;;;;;;;16.70;6.38;;;22.10;55.80;;;;;;5050750;28;20048;-66
2021/06/02 06:07:34;;;;;;;16.75;6.57;;;22.00;56.90;;;;;;5050940;28;20044;-66
2021/06/02 06:11:10;;;;;;;21.65;6.97;;;22.10;55.90;;;;;;5050916;28;20044;-66
2021/06/02 06:14:33;;;;;;;19.00;5.85;;;22.10;56.40;;;;;;5050722;28;20048;-65
2021/06/02 06:17:37;;;;;;;17.08;5.88;;;22.30;56.20;;;;;;5049970;28;20408;-65
2021/06/02 06:20:56;;;;;;;17.75;5.80;;;22.40;55.30;;;;;;5050399;28;20056;-65
2021/06/02 06:24:17;;;;;;;28.25;6.13;;;22.50;55.40;;;;;;5050616;28;20044;-67
2021/06/02 06:27:27;;;;;;;19.13;6.50;;;22.60;55.50;;;;;;5050689;28;20044;-67
2021/06/02 06:30:33;;;;;;;28.13;6.82;;;22.80;55.60;;;;;;5050723;28;20492;-66
2021/06/02 06:33:39;;;;;;;23.77;6.10;;;22.80;55.80;;;;;;5049454;28;20551;-67
2021/06/02 06:36:45;;;;;;;17.90;6.03;;;22.80;55.40;;;;;;5050978;28;20058;-67
2021/06/02 06:39:59;;;;;;;20.27;6.78;;;22.90;55.60;;;;;;5050428;28;20044;-68
2021/06/02 06:43:06;;;;;;;20.65;6.63;;;23.10;55.50;;;;;;5050178;28;20048;-65
2021/06/02 06:46:12;;;;;;;14.30;5.78;;;23.30;54.30;;;;;;5050412;28;20036;-67
2021/06/02 06:49:18;;;;;;;12.48;5.10;;;23.50;53.40;;;;;;5050039;28;20044;-66
2021/06/02 06:52:24;;;;;;;23.58;5.43;;;23.40;53.20;;;;;;5050542;28;20119;-68
2021/06/02 06:55:29;;;;;;;14.75;5.95;;;23.50;53.30;;;;;;5049448;28;20044;-65
2021/06/02 06:58:33;;;;;;;17.05;5.20;;;23.60;53.20;;;;;;5050120;28;20503;-65
2021/06/02 07:01:38;;;;;;;10.18;4.43;;;23.80;53.60;;;;;;5049847;28;20167;-65
2021/06/02 07:04:44;;;;;;;8.15;3.75;;;24.10;53.00;;;;;;5049919;28;20048;-68
2021/06/02 07:07:49;;;;;;;7.13;3.55;;;24.40;50.80;;;;;;5050450;28;20056;-68
2021/06/02 07:10:53;;;;;;;6.93;3.20;;;24.50;49.20;;;;;;5050183;28;20048;-67
2021/06/02 07:13:58;;;;;;;13.48;3.70;;;24.60;49.20;;;;;;5051840;28;20056;-69
2021/06/02 07:17:05;;;;;;;13.10;3.88;;;24.80;48.70;;;;;;5053925;28;20044;-68
2021/06/02 07:20:12;;;;;;;52.42;9.20;;;25.00;48.00;;;;;;5053458;28;20139;-65
2021/06/02 07:23:17;;;;;;;8.48;3.80;;;25.20;47.80;;;;;;5052957;28;20048;-66
2021/06/02 07:26:21;;;;;;;12.77;3.83;;;25.30;46.90;;;;;;5053517;28;20497;-69
2021/06/02 07:29:27;;;;;;;9.02;3.47;;;25.40;47.50;;;;;;5053461;28;20468;-68
2021/06/02 07:32:31;;;;;;;8.30;3.70;;;25.60;47.00;;;;;;5053287;28;20052;-68
2021/06/02 07:35:38;;;;;;;15.82;3.85;;;25.80;44.70;;;;;;5053491;28;20040;-70
2021/06/02 07:38:42;;;;;;;10.35;3.47;;;25.80;44.60;;;;;;5053323;28;20711;-67
2021/06/02 07:41:46;;;;;;;8.68;3.92;;;25.90;44.70;;;;;;5053090;28;20060;-67
2021/06/02 07:44:50;;;;;;;17.40;3.20;;;26.20;44.30;;;;;;5053582;28;20048;-69
2021/06/02 07:47:54;;;;;;;17.48;4.00;;;26.40;44.50;;;;;;5053280;28;20044;-68
2021/06/02 07:50:58;;;;;;;7.85;3.30;;;26.60;45.20;;;;;;5053305;28;20253;-66
2021/06/02 07:54:05;;;;;;;8.20;3.10;;;26.90;43.60;;;;;;5053148;28;20044;-68
2021/06/02 07:57:11;;;;;;;12.73;2.75;;;27.20;42.80;;;;;;5053003;28;20036;-67
2021/06/02 08:00:16;;;;;;;14.68;3.40;;;27.40;41.30;;;;;;5052797;28;20428;-68
2021/06/02 08:03:20;;;;;;;14.65;3.40;;;27.40;42.60;;;;;;5052877;28;20055;-67
2021/06/02 08:06:24;;;;;;;7.22;2.65;;;27.70;42.40;;;;;;5053060;28;20060;-67
2021/06/02 08:09:28;;;;;;;6.75;2.95;;;27.90;41.40;;;;;;5052679;28;20393;-66
2021/06/02 08:12:33;;;;;;;13.20;3.13;;;28.10;41.50;;;;;;5052960;28;20044;-67
2021/06/02 08:15:37;;;;;;;8.88;2.65;;;28.40;40.00;;;;;;5052755;28;20036;-69
2021/06/02 08:18:41;;;;;;;11.45;2.92;;;28.00;39.80;;;;;;5052738;28;20412;-68
2021/06/02 08:21:46;;;;;;;6.43;2.80;;;28.00;41.10;;;;;;5051894;28;20052;-67
2021/06/02 08:24:49;;;;;;;7.43;2.80;;;28.00;39.40;;;;;;5051800;28;20417;-65
2021/06/02 08:27:53;;;;;;;11.65;2.58;;;27.90;38.50;;;;;;5052359;28;20520;-67
2021/06/02 08:30:57;;;;;;;3.53;2.08;;;27.80;38.90;;;;;;5051823;28;20044;-66
2021/06/02 08:34:03;;;;;;;4.75;2.42;;;27.70;39.90;;;;;;5051794;28;20044;-66
2021/06/02 08:37:07;;;;;;;4.13;2.22;;;27.90;40.10;;;;;;5052286;28;20051;-67
2021/06/02 08:40:13;;;;;;;7.47;2.45;;;28.10;40.00;;;;;;5051081;28;20048;-68
2021/06/02 08:43:20;;;;;;;7.30;2.53;;;28.10;39.80;;;;;;5051601;28;20056;-68
2021/06/02 08:46:24;;;;;;;4.60;2.45;;;27.90;40.30;;;;;;5051650;28;20044;-69
2021/06/02 08:49:29;;;;;;;9.13;2.78;;;28.00;40.90;;;;;;5051945;28;20067;-69
2021/06/02 08:52:36;;;;;;;3.70;2.50;;;28.20;39.00;;;;;;5052039;28;20048;-68
2021/06/02 08:55:44;;;;;;;6.90;2.60;;;28.20;39.80;;;;;;5052388;28;20393;-68
2021/06/02 08:58:48;;;;;;;6.05;2.28;;;28.30;38.80;;;;;;5052092;28;20048;-68
2021/06/02 09:01:52;;;;;;;5.53;2.95;;;28.10;39.30;;;;;;5051776;28;20056;-68
2021/06/02 09:04:56;;;;;;;7.93;2.92;;;27.90;39.30;;;;;;5050658;28;20072;-67
2021/06/02 09:08:01;;;;;;;12.77;2.50;;;27.80;38.70;;;;;;5052040;28;20047;-67
2021/06/02 09:11:17;;;;;;;5.60;2.83;;;27.90;39.30;;;;;;5051756;28;20392;-66
2021/06/02 09:14:36;;;;;;;9.73;3.10;;;28.10;39.90;;;;;;5051544;28;20044;-68
2021/06/02 09:17:59;;;;;;;8.55;3.17;;;28.20;39.40;;;;;;5051658;28;20059;-65
2021/06/02 09:21:04;;;;;;;9.05;2.40;;;28.20;39.60;;;;;;5051345;28;20044;-66
2021/06/02 09:24:08;;;;;;;5.53;2.60;;;28.30;39.60;;;;;;5051600;28;20044;-65
2021/06/02 09:27:12;;;;;;;4.22;2.13;;;28.40;38.90;;;;;;5051550;28;20048;-67
2021/06/02 09:30:21;;;;;;;5.28;2.58;;;28.50;39.10;;;;;;5051154;28;20048;-67
2021/06/02 09:33:28;;;;;;;12.82;3.00;;;28.70;39.30;;;;;;5050625;28;20389;-67
2021/06/02 09:36:34;;;;;;;14.68;3.20;;;28.80;39.30;;;;;;5050603;28;20040;-66
2021/06/02 09:39:43;;;;;;;7.50;2.60;;;29.00;38.20;;;;;;5051195;28;20067;-67
2021/06/02 09:42:48;;;;;;;11.63;3.83;;;29.00;38.50;;;;;;5051258;28;20060;-67
2021/06/02 09:46:02;;;;;;;4.78;2.72;;;29.10;38.70;;;;;;5051160;28;20040;-67
2021/06/02 09:49:05;;;;;;;10.52;2.78;;;29.10;38.50;;;;;;5051189;28;20381;-67
2021/06/02 09:52:12;;;;;;;5.45;2.28;;;29.10;38.90;;;;;;5050848;28;20040;-67
2021/06/02 09:55:17;;;;;;;9.25;2.72;;;29.20;38.50;;;;;;5051177;28;20051;-65
2021/06/02 09:58:22;;;;;;;3.13;2.28;;;29.30;38.60;;;;;;5051080;28;20419;-68
2021/06/02 10:01:26;;;;;;;10.18;2.58;;;29.40;38.50;;;;;;5050691;28;20060;-68
2021/06/02 10:04:36;;;;;;;6.65;2.33;;;29.50;38.70;;;;;;5050678;28;20120;-68
2021/06/02 10:07:45;;;;;;;6.57;2.60;;;29.50;37.30;;;;;;5050344;28;20039;-67
2021/06/02 10:10:52;;;;;;;5.28;2.42;;;29.50;37.50;;;;;;5050898;28;20291;-66
2021/06/02 10:13:57;;;;;;;8.88;2.40;;;29.40;37.90;;;;;;5051096;28;20504;-66
2021/06/02 10:17:02;;;;;;;3.40;2.25;;;29.40;38.60;;;;;;5050196;28;20076;-67
2021/06/02 10:20:10;;;;;;;8.93;2.70;;;29.40;38.90;;;;;;5050767;28;20040;-67
2021/06/02 10:23:16;;;;;;;5.25;2.38;;;29.40;38.10;;;;;;5050031;28;20404;-67
2021/06/02 10:26:20;;;;;;;4.38;2.50;;;29.30;37.70;;;;;;5050665;28;20392;-67
2021/06/02 10:29:24;;;;;;;5.10;2.97;;;29.30;38.80;;;;;;5050873;28;20044;-67
2021/06/02 10:32:28;;;;;;;13.48;4.00;;;29.30;40.20;;;;;;5050450;28;20044;-67
2021/06/02 10:35:31;;;;;;;13.25;3.28;;;29.30;40.60;;;;;;5049833;28;20032;-67
2021/06/02 10:38:57;;;;;;;10.18;3.15;;;29.20;40.80;;;;;;5050599;28;20068;-65
2021/06/02 10:42:07;;;;;;;11.52;3.20;;;29.10;40.40;;;;;;5049940;28;20060;-67
2021/06/02 10:45:21;;;;;;;8.63;4.35;;;29.10;40.90;;;;;;5050710;28;20040;-66
2021/06/02 10:48:41;;;;;;;7.18;3.55;;;28.90;40.80;;;;;;5052945;28;20052;-66
2021/06/02 10:51:45;;;;;;;12.60;3.40;;;28.90;41.10;;;;;;5054240;28;20039;-67
2021/06/02 10:54:50;;;;;;;8.18;3.00;;;28.90;41.60;;;;;;5054468;28;20040;-67
2021/06/02 10:58:14;;;;;;;9.32;3.45;;;28.80;41.80;;;;;;5054098;28;20047;-67
2021/06/02 11:01:20;;;;;;;5.80;2.80;;;28.80;41.60;;;;;;5053856;28;20063;-67
2021/06/02 11:04:24;;;;;;;4.63;2.95;;;28.80;41.60;;;;;;5053839;28;20504;-67
2021/06/02 11:07:38;;;;;;;6.75;3.22;;;28.70;42.70;;;;;;5054226;28;20048;-67
2021/06/02 11:10:53;;;;;;;7.65;3.50;;;28.70;42.50;;;;;;5054287;28;20056;-67
2021/06/02 11:14:17;;;;;;;6.85;3.72;;;28.60;42.60;;;;;;5053903;28;20052;-67
2021/06/02 11:17:21;;;;;;;7.93;3.03;;;28.50;43.10;;;;;;5053943;28;20053;-65
2021/06/02 11:20:43;;;;;;;8.65;3.45;;;28.40;42.70;;;;;;5053579;28;20044;-65
2021/06/02 11:23:47;;;;;;;15.18;3.30;;;28.40;43.70;;;;;;5053105;28;20063;-65
2021/06/02 11:26:51;;;;;;;11.02;3.40;;;28.40;42.90;;;;;;5054007;28;20044;-65
2021/06/02 11:29:55;;;;;;;11.40;3.92;;;28.40;43.50;;;;;;5054015;28;20499;-65
2021/06/02 11:33:12;;;;;;;16.67;8.80;;;28.30;44.00;;;;;;5053754;28;20603;-64
2021/06/02 11:36:17;;;;;;;15.10;7.00;;;28.30;42.60;;;;;;5053645;28;20036;-64
2021/06/02 11:39:22;;;;;;;75.25;48.97;;;28.30;42.50;;;;;;5053552;28;20487;-64
2021/06/02 11:42:35;;;;;;;77.45;46.00;;;28.20;42.10;;;;;;5053771;28;20048;-65
2021/06/02 11:45:44;;;;;;;116.35;81.53;;;28.20;42.80;;;;;;5053636;28;20052;-65
2021/06/02 11:48:48;;;;;;;119.20;77.88;;;28.20;43.60;;;;;;5053988;28;20056;-65
2021/06/02 11:51:55;;;;;;;159.50;112.63;;;28.20;43.50;;;;;;5053495;28;20496;-65
2021/06/02 11:55:03;;;;;;;142.80;95.57;;;28.20;43.40;;;;;;5053596;28;20219;-65
2021/06/02 11:58:08;;;;;;;318.15;222.65;;;28.20;42.80;;;;;;5053343;28;20043;-65
2021/06/02 12:01:20;;;;;;;131.40;93.20;;;28.20;43.10;;;;;;5052795;28;20128;-65
2021/06/02 12:04:25;;;;;;;161.52;113.95;;;28.20;43.40;;;;;;5052982;28;20047;-65
2021/06/02 12:07:29;;;;;;;46.33;31.27;;;28.20;42.90;;;;;;5053280;28;20064;-65
2021/06/02 12:10:37;;;;;;;84.22;57.72;;;28.00;42.90;;;;;;5052133;28;20047;-65
2021/06/02 12:13:42;;;;;;;230.35;154.30;;;27.90;43.40;;;;;;5053026;28;20075;-65
2021/06/02 12:16:46;;;;;;;261.27;184.90;;;27.80;42.90;;;;;;5053012;28;20059;-64
2021/06/02 12:19:50;;;;;;;98.13;66.72;;;27.70;43.60;;;;;;5052338;28;20044;-64
2021/06/02 12:22:57;;;;;;;271.05;178.27;;;27.60;44.70;;;;;;5052729;28;20052;-65
2021/06/02 12:26:01;;;;;;;317.70;219.15;;;27.60;45.20;;;;;;5052900;28;20040;-65
2021/06/02 12:29:07;;;;;;;195.93;130.75;;;27.50;45.70;;;;;;5052653;28;20044;-65
2021/06/02 12:32:11;;;;;;;149.07;100.07;;;27.50;46.30;;;;;;5053013;28;20510;-65
2021/06/02 12:35:27;;;;;;;100.68;65.15;;;27.50;46.10;;;;;;5052644;28;20044;-65
2021/06/02 12:38:31;;;;;;;56.03;29.25;;;27.40;45.00;;;;;;5052655;28;20036;-64
2021/06/02 12:41:37;;;;;;;23.17;7.57;;;27.40;43.80;;;;;;5052361;28;20052;-65
2021/06/02 12:44:41;;;;;;;9.07;5.15;;;27.30;44.40;;;;;;5052382;28;20502;-65
2021/06/02 12:47:45;;;;;;;15.63;4.68;;;27.40;43.70;;;;;;5051536;28;20060;-65
2021/06/02 12:50:49;;;;;;;10.45;3.95;;;27.40;42.60;;;;;;5052466;28;20052;-65
2021/06/02 12:53:54;;;;;;;9.73;3.35;;;27.40;42.70;;;;;;5052143;28;20044;-65
2021/06/02 12:57:00;;;;;;;6.35;3.47;;;27.20;44.00;;;;;;5052121;28;20044;-65
2021/06/02 13:00:05;;;;;;;6.50;4.28;;;27.10;44.00;;;;;;5052034;28;20044;-65
2021/06/02 13:03:18;;;;;;;8.40;4.20;;;27.00;44.30;;;;;;5052044;28;20408;-66
2021/06/02 13:06:25;;;;;;;11.80;3.90;;;27.10;44.30;;;;;;5052043;28;20409;-65
2021/06/02 13:09:29;;;;;;;6.72;4.43;;;27.10;43.80;;;;;;5051909;28;20052;-66
2021/06/02 13:12:33;;;;;;;9.38;4.80;;;27.10;44.20;;;;;;5050702;28;20503;-66
2021/06/02 13:15:43;;;;;;;8.15;5.05;;;27.10;44.80;;;;;;5051890;28;20048;-66
2021/06/02 13:19:01;;;;;;;7.32;4.47;;;27.10;45.10;;;;;;5051455;28;20040;-66
2021/06/02 13:22:16;;;;;;;8.05;4.57;;;27.20;45.20;;;;;;5051682;28;20052;-64
2021/06/02 13:25:27;;;;;;;10.10;4.35;;;27.10;44.00;;;;;;5052007;28;20044;-64
2021/06/02 13:28:33;;;;;;;6.15;4.50;;;27.10;44.40;;;;;;5051632;28;20047;-64
2021/06/02 13:31:47;;;;;;;10.07;4.53;;;27.20;44.80;;;;;;5051736;28;20043;-65
2021/06/02 13:34:51;;;;;;;19.98;4.43;;;27.20;44.90;;;;;;5051563;28;20535;-65
2021/06/02 13:37:55;;;;;;;6.50;3.08;;;27.20;45.00;;;;;;5051495;28;20394;-65
2021/06/02 13:40:59;;;;;;;6.18;3.58;;;27.20;45.00;;;;;;5051782;28;20052;-65
2021/06/02 13:44:03;;;;;;;6.80;3.60;;;27.30;45.20;;;;;;5028272;28;20064;-65
2021/06/02 13:47:07;;;;;;;6.80;4.20;;;27.30;45.30;;;;;;5050672;28;20499;-65
2021/06/02 13:50:14;;;;;;;6.82;3.78;;;27.30;45.50;;;;;;5052015;28;20055;-65
2021/06/02 13:53:18;;;;;;;8.52;4.22;;;27.30;45.00;;;;;;5051483;28;20052;-65
2021/06/02 13:56:22;;;;;;;5.63;4.05;;;27.30;45.00;;;;;;5050494;28;20044;-65
2021/06/02 13:59:34;;;;;;;14.02;4.32;;;27.30;44.60;;;;;;5049959;28;20039;-65
2021/06/02 14:02:41;;;;;;;7.13;4.00;;;27.30;45.40;;;;;;5050895;28;20056;-65
2021/06/02 14:05:45;;;;;;;7.75;3.55;;;27.30;45.20;;;;;;5051086;28;20048;-65
2021/06/02 14:08:50;;;;;;;5.80;4.05;;;27.20;45.50;;;;;;5050875;28;20075;-66
2021/06/02 14:11:54;;;;;;;6.47;4.40;;;27.20;46.10;;;;;;5051110;28;20108;-66
2021/06/02 14:14:58;;;;;;;5.18;4.05;;;27.20;46.50;;;;;;5051093;28;20043;-66
2021/06/02 14:18:02;;;;;;;9.75;4.35;;;27.20;46.90;;;;;;5051468;28;20056;-66
2021/06/02 14:21:06;;;;;;;8.00;4.38;;;27.20;46.80;;;;;;5050711;28;20040;-66
2021/06/02 14:24:11;;;;;;;6.25;4.10;;;27.20;47.40;;;;;;5054834;28;20072;-66
2021/06/02 14:27:15;;;;;;;9.88;4.63;;;27.30;47.40;;;;;;5054815;28;20060;-66
2021/06/02 14:30:19;;;;;;;5.57;4.28;;;27.30;47.40;;;;;;5054527;28;20048;-66
2021/06/02 14:33:23;;;;;;;12.73;4.68;;;27.20;47.00;;;;;;5054727;28;20064;-66
2021/06/02 14:36:28;;;;;;;12.48;4.38;;;27.20;47.20;;;;;;5054758;28;20048;-66
2021/06/02 14:39:33;;;;;;;10.27;3.70;;;27.20;47.00;;;;;;5055085;28;20059;-66
2021/06/02 14:42:37;;;;;;;8.60;5.68;;;27.20;47.10;;;;;;5054656;28;20508;-66
2021/06/02 14:45:42;;;;;;;6.40;2.80;;;27.20;47.40;;;;;;5054749;28;20044;-66
2021/06/02 14:48:47;;;;;;;7.85;3.17;;;27.10;47.00;;;;;;5054680;28;20067;-66
2021/06/02 14:51:56;;;;;;;4.78;2.90;;;27.00;46.40;;;;;;5054293;28;20401;-66
2021/06/02 14:55:00;;;;;;;6.78;2.85;;;27.00;46.90;;;;;;5054528;28;20539;-66
2021/06/02 14:58:05;;;;;;;10.65;3.38;;;27.00;47.40;;;;;;5054372;28;20222;-66
2021/06/02 15:01:09;;;;;;;9.68;3.53;;;26.90;46.50;;;;;;5054228;28;20308;-66
2021/06/02 15:04:13;;;;;;;5.60;3.40;;;26.80;46.70;;;;;;5053897;28;20413;-67
2021/06/02 15:07:17;;;;;;;8.93;3.10;;;26.80;46.90;;;;;;5053239;28;20040;-66
2021/06/02 15:10:23;;;;;;;5.13;3.13;;;26.80;47.10;;;;;;5054191;28;20412;-66
2021/06/02 15:13:27;;;;;;;6.68;2.92;;;26.70;47.30;;;;;;5054380;28;20059;-67
2021/06/02 15:16:32;;;;;;;6.55;3.35;;;26.70;47.60;;;;;;5054088;28;20047;-67
2021/06/02 15:19:37;;;;;;;9.02;3.15;;;26.70;47.90;;;;;;5053665;28;20059;-66
2021/06/02 15:22:46;;;;;;;8.05;2.90;;;26.70;48.30;;;;;;5053676;28;20056;-66
2021/06/02 15:25:53;;;;;;;5.22;2.97;;;26.70;48.60;;;;;;5053112;28;20052;-66
2021/06/02 15:28:59;;;;;;;15.00;2.75;;;26.60;49.10;;;;;;5053355;28;20043;-66
2021/06/02 15:35:14;;;;;;;4.47;2.72;;;26.60;49.60;;;;;;4850076;23;20056;-65
2021/06/02 15:38:18;;;;;;;5.40;3.42;;;26.60;49.50;;;;;;4916617;29;20056;-66
2021/06/02 15:41:22;;;;;;;7.00;2.50;;;26.50;49.20;;;;;;4917094;29;20051;-65
2021/06/02 15:44:27;;;;;;;4.40;2.85;;;26.50;48.80;;;;;;4917047;29;20047;-67
2021/06/02 15:47:31;;;;;;;3.85;2.47;;;26.50;49.20;;;;;;4916885;29;20651;-66
2021/06/02 15:50:38;;;;;;;5.55;2.72;;;26.50;49.50;;;;;;4917327;29;20051;-66
2021/06/02 15:53:48;;;;;;;4.93;2.75;;;26.50;49.50;;;;;;4917054;29;20511;-67
2021/06/02 15:56:54;;;;;;;7.25;2.83;;;26.50;50.20;;;;;;4917030;29;20051;-66
2021/06/02 16:00:06;;;;;;;9.60;2.50;;;26.50;49.30;;;;;;4917195;29;20051;-67
2021/06/02 16:03:16;;;;;;;6.95;2.72;;;26.50;50.10;;;;;;4916777;29;20051;-67
2021/06/02 16:06:20;;;;;;;5.93;2.63;;;26.40;51.20;;;;;;4917102;29;20055;-67
2021/06/02 16:09:24;;;;;;;7.70;2.92;;;26.40;51.60;;;;;;4916888;29;20054;-67
2021/06/02 16:12:28;;;;;;;11.85;2.92;;;26.30;52.20;;;;;;4916911;29;20499;-67
2021/06/02 16:15:33;;;;;;;10.38;3.13;;;26.30;52.20;;;;;;4916570;29;20047;-66
2021/06/02 16:18:37;;;;;;;10.00;3.40;;;26.30;52.10;;;;;;4916648;29;20499;-65
2021/06/02 16:21:41;;;;;;;13.40;3.15;;;26.30;52.50;;;;;;4916532;29;20055;-65
2021/06/02 16:24:48;;;;;;;5.32;2.35;;;26.30;52.10;;;;;;4916553;29;20055;-65
2021/06/02 16:27:53;;;;;;;8.52;2.88;;;26.20;51.60;;;;;;4916426;29;20047;-65
2021/06/02 16:30:58;;;;;;;4.95;2.65;;;26.20;52.00;;;;;;4915729;29;20515;-66
2021/06/02 16:34:04;;;;;;;5.18;2.83;;;26.20;52.30;;;;;;4915857;29;20128;-66